sensor_id;sensor_type;location;lat;lon;timestamp;P1;durP1;ratioP1;P2;durP2;ratioP2
28760;SDS011;15917;50.014;8.352;2023-05-10T00:00:50;0.47;;;0.40;;
28760;SDS011;15917;50.014;8.352;2023-05-10T00:03:16;2.63;;;0.40;;
28760;SDS011;15917;50.014;8.352;2023-05-10T00:05:42;0.40;;;0.17;;
28760;SDS011;15917;50.014;8.352;2023-05-10T00:08:08;1.40;;;0.30;;
28760;SDS011;15917;50.014;8.352;2023-05-10T00:10:33;1.75;;;0.20;;
28760;SDS011;15917;50.014;8.352;2023-05-10T00:12:59;0.65;;;0.17;;
28760;SDS011;15917;50.014;8.352;2023-05-10T00:15:25;0.47;;;0.30;;
28760;SDS011;15917;50.014;8.352;2023-05-10T00:17:50;0.38;;;0.30;;
28760;SDS011;15917;50.014;8.352;2023-05-10T00:20:16;0.90;;;0.30;;
28760;SDS011;15917;50.014;8.352;2023-05-10T00:22:41;1.45;;;0.35;;
28760;SDS011;15917;50.014;8.352;2023-05-10T00:25:07;0.65;;;0.20;;
28760;SDS011;15917;50.014;8.352;2023-05-10T00:27:34;2.30;;;0.50;;
28760;SDS011;15917;50.014;8.352;2023-05-10T00:29:59;0.75;;;0.28;;
28760;SDS011;15917;50.014;8.352;2023-05-10T00:32:25;0.20;;;0.20;;
28760;SDS011;15917;50.014;8.352;2023-05-10T00:34:51;1.35;;;0.20;;
28760;SDS011;15917;50.014;8.352;2023-05-10T00:37:16;0.30;;;0.20;;
28760;SDS011;15917;50.014;8.352;2023-05-10T00:39:42;1.17;;;0.47;;
28760;SDS011;15917;50.014;8.352;2023-05-10T00:42:08;0.57;;;0.20;;
28760;SDS011;15917;50.014;8.352;2023-05-10T00:44:33;0.30;;;0.30;;
28760;SDS011;15917;50.014;8.352;2023-05-10T00:46:59;0.90;;;0.30;;
28760;SDS011;15917;50.014;8.352;2023-05-10T00:49:25;1.85;;;0.30;;
28760;SDS011;15917;50.014;8.352;2023-05-10T00:54:31;2.83;;;0.30;;
28760;SDS011;15917;50.014;8.352;2023-05-10T00:56:56;2.05;;;0.30;;
28760;SDS011;15917;50.014;8.352;2023-05-10T00:59:23;0.70;;;0.20;;
28760;SDS011;15917;50.014;8.352;2023-05-10T01:01:50;2.65;;;0.28;;
28760;SDS011;15917;50.014;8.352;2023-05-10T01:04:16;0.30;;;0.20;;
28760;SDS011;15917;50.014;8.352;2023-05-10T01:06:42;0.20;;;0.20;;
28760;SDS011;15917;50.014;8.352;2023-05-10T01:09:08;0.20;;;0.20;;
28760;SDS011;15917;50.014;8.352;2023-05-10T01:11:35;0.35;;;0.35;;
28760;SDS011;15917;50.014;8.352;2023-05-10T01:14:03;2.53;;;0.30;;
28760;SDS011;15917;50.014;8.352;2023-05-10T01:16:29;0.30;;;0.28;;
28760;SDS011;15917;50.014;8.352;2023-05-10T01:18:57;0.55;;;0.20;;
28760;SDS011;15917;50.014;8.352;2023-05-10T01:21:35;3.55;;;0.45;;
28760;SDS011;15917;50.014;8.352;2023-05-10T01:24:09;0.30;;;0.30;;
28760;SDS011;15917;50.014;8.352;2023-05-10T01:26:55;2.20;;;0.65;;
28760;SDS011;15917;50.014;8.352;2023-05-10T01:29:47;0.50;;;0.50;;
28760;SDS011;15917;50.014;8.352;2023-05-10T01:35:40;1.23;;;0.40;;
28760;SDS011;15917;50.014;8.352;2023-05-10T01:41:04;2.60;;;0.40;;
28760;SDS011;15917;50.014;8.352;2023-05-10T01:44:12;3.20;;;0.30;;
28760;SDS011;15917;50.014;8.352;2023-05-10T01:46:42;2.35;;;0.30;;
28760;SDS011;15917;50.014;8.352;2023-05-10T01:49:09;0.57;;;0.32;;
28760;SDS011;15917;50.014;8.352;2023-05-10T01:51:45;1.13;;;0.50;;
28760;SDS011;15917;50.014;8.352;2023-05-10T01:54:19;0.30;;;0.30;;
28760;SDS011;15917;50.014;8.352;2023-05-10T01:56:47;0.35;;;0.30;;
28760;SDS011;15917;50.014;8.352;2023-05-10T01:59:18;0.77;;;0.40;;
28760;SDS011;15917;50.014;8.352;2023-05-10T02:01:45;5.10;;;0.68;;
28760;SDS011;15917;50.014;8.352;2023-05-10T02:04:13;0.38;;;0.38;;
28760;SDS011;15917;50.014;8.352;2023-05-10T02:06:42;5.15;;;0.40;;
28760;SDS011;15917;50.014;8.352;2023-05-10T02:09:10;1.75;;;0.47;;
28760;SDS011;15917;50.014;8.352;2023-05-10T02:11:38;0.80;;;0.30;;
28760;SDS011;15917;50.014;8.352;2023-05-10T02:14:07;0.60;;;0.50;;
28760;SDS011;15917;50.014;8.352;2023-05-10T02:16:36;0.65;;;0.30;;
28760;SDS011;15917;50.014;8.352;2023-05-10T02:19:04;0.63;;;0.30;;
28760;SDS011;15917;50.014;8.352;2023-05-10T02:21:31;0.40;;;0.40;;
28760;SDS011;15917;50.014;8.352;2023-05-10T02:23:59;9.15;;;0.50;;
28760;SDS011;15917;50.014;8.352;2023-05-10T02:26:27;1.10;;;0.30;;
28760;SDS011;15917;50.014;8.352;2023-05-10T02:28:56;1.55;;;0.30;;
28760;SDS011;15917;50.014;8.352;2023-05-10T02:31:23;0.80;;;0.57;;
28760;SDS011;15917;50.014;8.352;2023-05-10T02:33:49;0.95;;;0.40;;
28760;SDS011;15917;50.014;8.352;2023-05-10T02:36:17;6.45;;;0.50;;
28760;SDS011;15917;50.014;8.352;2023-05-10T02:38:44;0.40;;;0.40;;
28760;SDS011;15917;50.014;8.352;2023-05-10T02:41:11;1.65;;;0.50;;
28760;SDS011;15917;50.014;8.352;2023-05-10T02:43:37;0.63;;;0.50;;
28760;SDS011;15917;50.014;8.352;2023-05-10T02:46:05;1.75;;;0.50;;
28760;SDS011;15917;50.014;8.352;2023-05-10T02:48:31;2.70;;;0.43;;
28760;SDS011;15917;50.014;8.352;2023-05-10T02:50:59;3.40;;;0.50;;
28760;SDS011;15917;50.014;8.352;2023-05-10T02:53:30;0.40;;;0.40;;
28760;SDS011;15917;50.014;8.352;2023-05-10T02:56:04;0.63;;;0.38;;
28760;SDS011;15917;50.014;8.352;2023-05-10T02:58:34;0.40;;;0.40;;
28760;SDS011;15917;50.014;8.352;2023-05-10T03:01:00;4.65;;;0.75;;
28760;SDS011;15917;50.014;8.352;2023-05-10T03:03:26;0.85;;;0.70;;
28760;SDS011;15917;50.014;8.352;2023-05-10T03:05:52;1.00;;;0.57;;
28760;SDS011;15917;50.014;8.352;2023-05-10T03:08:21;0.98;;;0.63;;
28760;SDS011;15917;50.014;8.352;2023-05-10T03:10:50;2.38;;;0.73;;
28760;SDS011;15917;50.014;8.352;2023-05-10T03:13:39;1.10;;;0.60;;
28760;SDS011;15917;50.014;8.352;2023-05-10T03:16:24;1.05;;;0.40;;
28760;SDS011;15917;50.014;8.352;2023-05-10T03:19:01;0.88;;;0.60;;
28760;SDS011;15917;50.014;8.352;2023-05-10T03:21:41;1.95;;;0.85;;
28760;SDS011;15917;50.014;8.352;2023-05-10T03:24:14;2.30;;;0.47;;
28760;SDS011;15917;50.014;8.352;2023-05-10T03:26:46;1.30;;;0.68;;
28760;SDS011;15917;50.014;8.352;2023-05-10T03:29:15;2.47;;;0.50;;
28760;SDS011;15917;50.014;8.352;2023-05-10T03:31:42;1.92;;;0.68;;
28760;SDS011;15917;50.014;8.352;2023-05-10T03:34:08;1.80;;;1.13;;
28760;SDS011;15917;50.014;8.352;2023-05-10T03:36:33;2.15;;;0.70;;
28760;SDS011;15917;50.014;8.352;2023-05-10T03:39:00;4.72;;;1.00;;
28760;SDS011;15917;50.014;8.352;2023-05-10T03:41:26;0.98;;;0.55;;
28760;SDS011;15917;50.014;8.352;2023-05-10T03:43:53;0.80;;;0.70;;
28760;SDS011;15917;50.014;8.352;2023-05-10T03:46:18;0.95;;;0.80;;
28760;SDS011;15917;50.014;8.352;2023-05-10T03:48:44;4.60;;;0.70;;
28760;SDS011;15917;50.014;8.352;2023-05-10T03:51:10;13.65;;;1.10;;
28760;SDS011;15917;50.014;8.352;2023-05-10T03:53:36;2.88;;;0.80;;
28760;SDS011;15917;50.014;8.352;2023-05-10T03:56:01;1.95;;;0.47;;
28760;SDS011;15917;50.014;8.352;2023-05-10T03:58:28;1.92;;;0.75;;
28760;SDS011;15917;50.014;8.352;2023-05-10T04:00:53;5.28;;;0.85;;
28760;SDS011;15917;50.014;8.352;2023-05-10T04:03:19;2.58;;;0.75;;
28760;SDS011;15917;50.014;8.352;2023-05-10T04:05:45;2.63;;;0.68;;
28760;SDS011;15917;50.014;8.352;2023-05-10T04:08:11;2.58;;;0.50;;
28760;SDS011;15917;50.014;8.352;2023-05-10T04:10:36;2.03;;;0.95;;
28760;SDS011;15917;50.014;8.352;2023-05-10T04:13:02;2.78;;;0.90;;
28760;SDS011;15917;50.014;8.352;2023-05-10T04:15:27;3.95;;;0.77;;
28760;SDS011;15917;50.014;8.352;2023-05-10T04:17:53;2.75;;;0.60;;
28760;SDS011;15917;50.014;8.352;2023-05-10T04:20:19;0.93;;;0.70;;
28760;SDS011;15917;50.014;8.352;2023-05-10T04:22:44;1.33;;;0.73;;
28760;SDS011;15917;50.014;8.352;2023-05-10T04:25:10;2.90;;;0.70;;
28760;SDS011;15917;50.014;8.352;2023-05-10T04:27:36;3.65;;;0.90;;
28760;SDS011;15917;50.014;8.352;2023-05-10T04:30:02;1.08;;;0.85;;
28760;SDS011;15917;50.014;8.352;2023-05-10T04:32:28;2.97;;;0.90;;
28760;SDS011;15917;50.014;8.352;2023-05-10T04:34:54;4.00;;;0.77;;
28760;SDS011;15917;50.014;8.352;2023-05-10T04:37:20;2.15;;;1.00;;
28760;SDS011;15917;50.014;8.352;2023-05-10T04:39:46;1.33;;;0.93;;
28760;SDS011;15917;50.014;8.352;2023-05-10T04:42:12;0.80;;;0.77;;
28760;SDS011;15917;50.014;8.352;2023-05-10T04:44:39;6.07;;;1.30;;
28760;SDS011;15917;50.014;8.352;2023-05-10T04:47:05;11.27;;;1.10;;
28760;SDS011;15917;50.014;8.352;2023-05-10T04:49:31;2.85;;;1.13;;
28760;SDS011;15917;50.014;8.352;2023-05-10T04:51:57;1.95;;;1.02;;
28760;SDS011;15917;50.014;8.352;2023-05-10T04:54:22;3.55;;;1.52;;
28760;SDS011;15917;50.014;8.352;2023-05-10T04:56:48;3.50;;;1.10;;
28760;SDS011;15917;50.014;8.352;2023-05-10T04:59:14;2.67;;;1.40;;
28760;SDS011;15917;50.014;8.352;2023-05-10T05:01:39;2.08;;;1.23;;
28760;SDS011;15917;50.014;8.352;2023-05-10T05:04:05;5.30;;;1.38;;
28760;SDS011;15917;50.014;8.352;2023-05-10T05:06:31;3.10;;;1.30;;
28760;SDS011;15917;50.014;8.352;2023-05-10T05:08:57;3.80;;;1.80;;
28760;SDS011;15917;50.014;8.352;2023-05-10T05:11:23;5.25;;;1.48;;
28760;SDS011;15917;50.014;8.352;2023-05-10T05:13:48;7.00;;;1.60;;
28760;SDS011;15917;50.014;8.352;2023-05-10T05:16:14;5.90;;;2.00;;
28760;SDS011;15917;50.014;8.352;2023-05-10T05:18:40;4.70;;;1.40;;
28760;SDS011;15917;50.014;8.352;2023-05-10T05:21:15;1.77;;;1.20;;
28760;SDS011;15917;50.014;8.352;2023-05-10T05:23:41;3.38;;;1.42;;
28760;SDS011;15917;50.014;8.352;2023-05-10T05:26:07;4.47;;;1.55;;
28760;SDS011;15917;50.014;8.352;2023-05-10T05:28:33;3.75;;;1.48;;
28760;SDS011;15917;50.014;8.352;2023-05-10T05:31:02;3.55;;;1.60;;
28760;SDS011;15917;50.014;8.352;2023-05-10T05:33:31;4.90;;;2.08;;
28760;SDS011;15917;50.014;8.352;2023-05-10T05:35:56;2.55;;;1.50;;
28760;SDS011;15917;50.014;8.352;2023-05-10T05:38:22;4.10;;;1.90;;
28760;SDS011;15917;50.014;8.352;2023-05-10T05:40:48;5.40;;;1.52;;
28760;SDS011;15917;50.014;8.352;2023-05-10T05:43:14;5.20;;;1.88;;
28760;SDS011;15917;50.014;8.352;2023-05-10T05:45:39;5.90;;;2.08;;
28760;SDS011;15917;50.014;8.352;2023-05-10T05:48:05;5.85;;;1.92;;
28760;SDS011;15917;50.014;8.352;2023-05-10T05:50:31;6.00;;;1.80;;
28760;SDS011;15917;50.014;8.352;2023-05-10T05:52:56;7.35;;;2.05;;
28760;SDS011;15917;50.014;8.352;2023-05-10T05:55:22;8.48;;;2.03;;
28760;SDS011;15917;50.014;8.352;2023-05-10T05:57:49;6.60;;;1.90;;
28760;SDS011;15917;50.014;8.352;2023-05-10T06:00:15;9.98;;;2.47;;
28760;SDS011;15917;50.014;8.352;2023-05-10T06:02:41;5.97;;;2.35;;
28760;SDS011;15917;50.014;8.352;2023-05-10T06:05:06;6.47;;;2.20;;
28760;SDS011;15917;50.014;8.352;2023-05-10T06:07:32;6.43;;;2.33;;
28760;SDS011;15917;50.014;8.352;2023-05-10T06:09:58;11.82;;;1.70;;
28760;SDS011;15917;50.014;8.352;2023-05-10T06:12:24;5.28;;;2.15;;
28760;SDS011;15917;50.014;8.352;2023-05-10T06:14:49;8.30;;;2.17;;
28760;SDS011;15917;50.014;8.352;2023-05-10T06:17:15;11.02;;;2.10;;
28760;SDS011;15917;50.014;8.352;2023-05-10T06:19:40;7.38;;;2.05;;
28760;SDS011;15917;50.014;8.352;2023-05-10T06:22:06;9.13;;;2.80;;
28760;SDS011;15917;50.014;8.352;2023-05-10T06:24:32;5.07;;;1.80;;
28760;SDS011;15917;50.014;8.352;2023-05-10T06:26:57;4.68;;;2.20;;
28760;SDS011;15917;50.014;8.352;2023-05-10T06:29:25;4.88;;;1.80;;
28760;SDS011;15917;50.014;8.352;2023-05-10T06:31:51;7.45;;;2.22;;
28760;SDS011;15917;50.014;8.352;2023-05-10T06:34:16;3.47;;;1.80;;
28760;SDS011;15917;50.014;8.352;2023-05-10T06:36:42;13.27;;;2.17;;
28760;SDS011;15917;50.014;8.352;2023-05-10T06:39:07;7.15;;;1.80;;
28760;SDS011;15917;50.014;8.352;2023-05-10T06:41:33;5.38;;;2.30;;
28760;SDS011;15917;50.014;8.352;2023-05-10T06:43:58;7.25;;;2.40;;
28760;SDS011;15917;50.014;8.352;2023-05-10T06:46:24;8.73;;;1.95;;
28760;SDS011;15917;50.014;8.352;2023-05-10T06:48:49;3.60;;;1.75;;
28760;SDS011;15917;50.014;8.352;2023-05-10T06:51:15;3.83;;;2.13;;
28760;SDS011;15917;50.014;8.352;2023-05-10T06:53:41;5.03;;;1.92;;
28760;SDS011;15917;50.014;8.352;2023-05-10T06:56:06;4.80;;;1.70;;
28760;SDS011;15917;50.014;8.352;2023-05-10T06:58:32;9.57;;;1.80;;
28760;SDS011;15917;50.014;8.352;2023-05-10T07:01:02;6.47;;;1.85;;
28760;SDS011;15917;50.014;8.352;2023-05-10T07:03:29;8.00;;;2.53;;
28760;SDS011;15917;50.014;8.352;2023-05-10T07:05:59;11.20;;;2.03;;
28760;SDS011;15917;50.014;8.352;2023-05-10T07:08:28;6.88;;;1.85;;
28760;SDS011;15917;50.014;8.352;2023-05-10T07:10:59;4.60;;;1.63;;
28760;SDS011;15917;50.014;8.352;2023-05-10T07:13:25;7.50;;;1.65;;
28760;SDS011;15917;50.014;8.352;2023-05-10T07:15:51;4.55;;;1.33;;
28760;SDS011;15917;50.014;8.352;2023-05-10T07:18:16;6.10;;;1.70;;
28760;SDS011;15917;50.014;8.352;2023-05-10T07:20:42;7.40;;;1.70;;
28760;SDS011;15917;50.014;8.352;2023-05-10T07:23:08;5.75;;;1.70;;
28760;SDS011;15917;50.014;8.352;2023-05-10T07:25:33;3.05;;;1.50;;
28760;SDS011;15917;50.014;8.352;2023-05-10T07:27:59;6.18;;;1.58;;
28760;SDS011;15917;50.014;8.352;2023-05-10T07:30:24;6.85;;;2.00;;
28760;SDS011;15917;50.014;8.352;2023-05-10T07:32:50;10.27;;;1.60;;
28760;SDS011;15917;50.014;8.352;2023-05-10T07:35:16;3.92;;;1.55;;
28760;SDS011;15917;50.014;8.352;2023-05-10T07:37:41;4.95;;;1.63;;
28760;SDS011;15917;50.014;8.352;2023-05-10T07:40:07;11.38;;;2.10;;
28760;SDS011;15917;50.014;8.352;2023-05-10T07:42:33;5.47;;;1.60;;
28760;SDS011;15917;50.014;8.352;2023-05-10T07:44:59;3.97;;;1.48;;
28760;SDS011;15917;50.014;8.352;2023-05-10T07:47:24;5.82;;;1.50;;
28760;SDS011;15917;50.014;8.352;2023-05-10T07:49:50;6.20;;;1.65;;
28760;SDS011;15917;50.014;8.352;2023-05-10T07:52:16;3.30;;;1.38;;
28760;SDS011;15917;50.014;8.352;2023-05-10T07:54:42;6.88;;;1.63;;
28760;SDS011;15917;50.014;8.352;2023-05-10T07:57:07;7.65;;;1.85;;
28760;SDS011;15917;50.014;8.352;2023-05-10T07:59:33;2.58;;;1.30;;
28760;SDS011;15917;50.014;8.352;2023-05-10T08:01:59;3.55;;;1.35;;
28760;SDS011;15917;50.014;8.352;2023-05-10T08:04:24;5.75;;;1.63;;
28760;SDS011;15917;50.014;8.352;2023-05-10T08:06:50;4.18;;;1.40;;
28760;SDS011;15917;50.014;8.352;2023-05-10T08:09:15;5.72;;;1.45;;
28760;SDS011;15917;50.014;8.352;2023-05-10T08:11:42;5.50;;;1.60;;
28760;SDS011;15917;50.014;8.352;2023-05-10T08:14:08;3.42;;;1.40;;
28760;SDS011;15917;50.014;8.352;2023-05-10T08:16:33;10.95;;;2.15;;
28760;SDS011;15917;50.014;8.352;2023-05-10T08:18:59;5.18;;;1.80;;
28760;SDS011;15917;50.014;8.352;2023-05-10T08:21:25;4.13;;;1.38;;
28760;SDS011;15917;50.014;8.352;2023-05-10T08:23:51;5.97;;;1.52;;
28760;SDS011;15917;50.014;8.352;2023-05-10T08:26:16;1.80;;;1.33;;
28760;SDS011;15917;50.014;8.352;2023-05-10T08:28:42;6.25;;;1.67;;
28760;SDS011;15917;50.014;8.352;2023-05-10T08:31:08;6.05;;;1.52;;
28760;SDS011;15917;50.014;8.352;2023-05-10T08:33:33;4.18;;;1.45;;
28760;SDS011;15917;50.014;8.352;2023-05-10T08:35:59;3.92;;;1.52;;
28760;SDS011;15917;50.014;8.352;2023-05-10T08:38:24;4.68;;;1.30;;
28760;SDS011;15917;50.014;8.352;2023-05-10T08:40:50;6.15;;;1.60;;
28760;SDS011;15917;50.014;8.352;2023-05-10T08:43:21;4.10;;;1.13;;
28760;SDS011;15917;50.014;8.352;2023-05-10T08:45:50;4.97;;;1.30;;
28760;SDS011;15917;50.014;8.352;2023-05-10T08:48:17;3.88;;;1.33;;
28760;SDS011;15917;50.014;8.352;2023-05-10T08:50:44;5.97;;;1.75;;
28760;SDS011;15917;50.014;8.352;2023-05-10T08:53:12;5.72;;;1.33;;
28760;SDS011;15917;50.014;8.352;2023-05-10T08:55:38;4.03;;;1.20;;
28760;SDS011;15917;50.014;8.352;2023-05-10T08:58:07;7.25;;;1.40;;
28760;SDS011;15917;50.014;8.352;2023-05-10T09:00:33;5.60;;;1.90;;
28760;SDS011;15917;50.014;8.352;2023-05-10T09:03:00;3.90;;;1.25;;
28760;SDS011;15917;50.014;8.352;2023-05-10T09:05:27;2.08;;;1.02;;
28760;SDS011;15917;50.014;8.352;2023-05-10T09:07:54;3.30;;;1.10;;
28760;SDS011;15917;50.014;8.352;2023-05-10T09:10:20;3.40;;;1.20;;
28760;SDS011;15917;50.014;8.352;2023-05-10T09:12:45;7.47;;;1.55;;
28760;SDS011;15917;50.014;8.352;2023-05-10T09:15:14;4.93;;;1.48;;
28760;SDS011;15917;50.014;8.352;2023-05-10T09:17:40;2.28;;;1.10;;
28760;SDS011;15917;50.014;8.352;2023-05-10T09:20:07;8.77;;;1.98;;
28760;SDS011;15917;50.014;8.352;2023-05-10T09:22:33;16.50;;;1.30;;
28760;SDS011;15917;50.014;8.352;2023-05-10T09:25:12;2.67;;;1.25;;
28760;SDS011;15917;50.014;8.352;2023-05-10T09:27:40;2.53;;;1.10;;
28760;SDS011;15917;50.014;8.352;2023-05-10T09:30:10;5.18;;;1.30;;
28760;SDS011;15917;50.014;8.352;2023-05-10T09:32:41;5.10;;;1.52;;
28760;SDS011;15917;50.014;8.352;2023-05-10T09:35:12;4.47;;;1.05;;
28760;SDS011;15917;50.014;8.352;2023-05-10T09:37:39;7.70;;;1.40;;
28760;SDS011;15917;50.014;8.352;2023-05-10T09:40:12;2.20;;;1.52;;
28760;SDS011;15917;50.014;8.352;2023-05-10T09:42:51;5.22;;;1.55;;
28760;SDS011;15917;50.014;8.352;2023-05-10T09:45:24;7.35;;;1.40;;
28760;SDS011;15917;50.014;8.352;2023-05-10T09:47:51;2.13;;;0.80;;
28760;SDS011;15917;50.014;8.352;2023-05-10T09:50:17;3.30;;;0.55;;
28760;SDS011;15917;50.014;8.352;2023-05-10T09:55:15;1.60;;;0.70;;
28760;SDS011;15917;50.014;8.352;2023-05-10T09:57:42;0.90;;;0.80;;
28760;SDS011;15917;50.014;8.352;2023-05-10T10:00:08;1.80;;;0.90;;
28760;SDS011;15917;50.014;8.352;2023-05-10T10:02:41;6.88;;;1.00;;
28760;SDS011;15917;50.014;8.352;2023-05-10T10:05:07;2.05;;;0.80;;
28760;SDS011;15917;50.014;8.352;2023-05-10T10:07:33;1.17;;;0.60;;
28760;SDS011;15917;50.014;8.352;2023-05-10T10:09:59;1.60;;;0.70;;
28760;SDS011;15917;50.014;8.352;2023-05-10T10:12:25;1.40;;;0.80;;
28760;SDS011;15917;50.014;8.352;2023-05-10T10:14:51;3.40;;;0.90;;
28760;SDS011;15917;50.014;8.352;2023-05-10T10:17:18;6.85;;;0.82;;
28760;SDS011;15917;50.014;8.352;2023-05-10T10:19:44;2.25;;;0.90;;
28760;SDS011;15917;50.014;8.352;2023-05-10T10:22:11;5.03;;;1.25;;
28760;SDS011;15917;50.014;8.352;2023-05-10T10:24:37;1.90;;;0.60;;
28760;SDS011;15917;50.014;8.352;2023-05-10T10:29:45;0.75;;;0.38;;
28760;SDS011;15917;50.014;8.352;2023-05-10T10:34:45;4.03;;;0.73;;
28760;SDS011;15917;50.014;8.352;2023-05-10T10:37:11;3.55;;;0.88;;
28760;SDS011;15917;50.014;8.352;2023-05-10T10:39:37;5.05;;;0.57;;
28760;SDS011;15917;50.014;8.352;2023-05-10T10:42:03;4.00;;;0.60;;
28760;SDS011;15917;50.014;8.352;2023-05-10T10:50:03;0.52;;;0.40;;
28760;SDS011;15917;50.014;8.352;2023-05-10T10:55:01;0.65;;;0.40;;
28760;SDS011;15917;50.014;8.352;2023-05-10T10:57:28;1.10;;;0.43;;
28760;SDS011;15917;50.014;8.352;2023-05-10T11:02:59;1.25;;;0.47;;
28760;SDS011;15917;50.014;8.352;2023-05-10T11:05:44;0.40;;;0.40;;
28760;SDS011;15917;50.014;8.352;2023-05-10T11:08:30;1.20;;;0.60;;
28760;SDS011;15917;50.014;8.352;2023-05-10T11:13:38;1.95;;;0.50;;
28760;SDS011;15917;50.014;8.352;2023-05-10T11:16:18;3.05;;;0.52;;
28760;SDS011;15917;50.014;8.352;2023-05-10T11:21:27;1.42;;;0.47;;
28760;SDS011;15917;50.014;8.352;2023-05-10T11:23:57;6.60;;;0.50;;
28760;SDS011;15917;50.014;8.352;2023-05-10T11:26:25;0.52;;;0.40;;
28760;SDS011;15917;50.014;8.352;2023-05-10T11:28:56;0.77;;;0.52;;
28760;SDS011;15917;50.014;8.352;2023-05-10T11:31:22;0.70;;;0.60;;
28760;SDS011;15917;50.014;8.352;2023-05-10T11:33:51;0.80;;;0.40;;
28760;SDS011;15917;50.014;8.352;2023-05-10T11:36:19;1.25;;;0.50;;
28760;SDS011;15917;50.014;8.352;2023-05-10T11:41:13;2.17;;;0.60;;
28760;SDS011;15917;50.014;8.352;2023-05-10T11:43:40;2.50;;;0.55;;
28760;SDS011;15917;50.014;8.352;2023-05-10T11:46:11;1.15;;;0.40;;
28760;SDS011;15917;50.014;8.352;2023-05-10T11:48:40;1.42;;;0.40;;
28760;SDS011;15917;50.014;8.352;2023-05-10T11:51:08;2.55;;;0.30;;
28760;SDS011;15917;50.014;8.352;2023-05-10T11:53:35;3.35;;;0.60;;
28760;SDS011;15917;50.014;8.352;2023-05-10T11:56:07;0.55;;;0.38;;
28760;SDS011;15917;50.014;8.352;2023-05-10T11:58:34;1.27;;;0.40;;
28760;SDS011;15917;50.014;8.352;2023-05-10T12:01:00;0.43;;;0.30;;
28760;SDS011;15917;50.014;8.352;2023-05-10T12:03:27;0.52;;;0.40;;
28760;SDS011;15917;50.014;8.352;2023-05-10T12:05:54;1.92;;;0.35;;
28760;SDS011;15917;50.014;8.352;2023-05-10T12:08:23;0.60;;;0.40;;
28760;SDS011;15917;50.014;8.352;2023-05-10T12:10:50;5.38;;;0.50;;
28760;SDS011;15917;50.014;8.352;2023-05-10T12:13:16;4.28;;;0.30;;
28760;SDS011;15917;50.014;8.352;2023-05-10T12:15:43;3.53;;;0.33;;
28760;SDS011;15917;50.014;8.352;2023-05-10T12:18:14;0.85;;;0.40;;
28760;SDS011;15917;50.014;8.352;2023-05-10T12:20:40;1.52;;;0.43;;
28760;SDS011;15917;50.014;8.352;2023-05-10T12:23:08;0.60;;;0.40;;
28760;SDS011;15917;50.014;8.352;2023-05-10T12:25:37;2.40;;;1.02;;
28760;SDS011;15917;50.014;8.352;2023-05-10T12:28:04;3.08;;;0.60;;
28760;SDS011;15917;50.014;8.352;2023-05-10T12:30:32;1.67;;;0.82;;
28760;SDS011;15917;50.014;8.352;2023-05-10T12:32:59;0.93;;;0.50;;
28760;SDS011;15917;50.014;8.352;2023-05-10T12:35:50;3.08;;;0.45;;
28760;SDS011;15917;50.014;8.352;2023-05-10T12:38:25;3.03;;;0.95;;
28760;SDS011;15917;50.014;8.352;2023-05-10T12:40:59;0.60;;;0.40;;
28760;SDS011;15917;50.014;8.352;2023-05-10T12:43:25;3.75;;;0.70;;
28760;SDS011;15917;50.014;8.352;2023-05-10T12:45:51;0.55;;;0.50;;
28760;SDS011;15917;50.014;8.352;2023-05-10T12:48:18;0.80;;;0.50;;
28760;SDS011;15917;50.014;8.352;2023-05-10T12:50:43;6.65;;;0.80;;
28760;SDS011;15917;50.014;8.352;2023-05-10T12:53:10;4.53;;;0.57;;
28760;SDS011;15917;50.014;8.352;2023-05-10T12:55:36;1.75;;;0.45;;
28760;SDS011;15917;50.014;8.352;2023-05-10T12:58:01;7.05;;;0.50;;
28760;SDS011;15917;50.014;8.352;2023-05-10T13:00:27;2.17;;;0.60;;
28760;SDS011;15917;50.014;8.352;2023-05-10T13:02:52;5.63;;;0.55;;
28760;SDS011;15917;50.014;8.352;2023-05-10T13:05:18;1.40;;;0.55;;
28760;SDS011;15917;50.014;8.352;2023-05-10T13:07:44;2.92;;;0.70;;
28760;SDS011;15917;50.014;8.352;2023-05-10T13:10:10;5.25;;;0.65;;
28760;SDS011;15917;50.014;8.352;2023-05-10T13:12:36;2.10;;;0.68;;
28760;SDS011;15917;50.014;8.352;2023-05-10T13:15:02;6.38;;;1.20;;
28760;SDS011;15917;50.014;8.352;2023-05-10T13:17:28;7.78;;;0.75;;
28760;SDS011;15917;50.014;8.352;2023-05-10T13:19:54;2.75;;;0.65;;
28760;SDS011;15917;50.014;8.352;2023-05-10T13:22:20;10.23;;;1.00;;
28760;SDS011;15917;50.014;8.352;2023-05-10T13:24:45;6.22;;;0.75;;
28760;SDS011;15917;50.014;8.352;2023-05-10T13:27:11;1.73;;;0.75;;
28760;SDS011;15917;50.014;8.352;2023-05-10T13:29:36;3.83;;;0.70;;
28760;SDS011;15917;50.014;8.352;2023-05-10T13:32:02;3.58;;;0.60;;
28760;SDS011;15917;50.014;8.352;2023-05-10T13:34:28;1.88;;;0.63;;
28760;SDS011;15917;50.014;8.352;2023-05-10T13:36:54;0.80;;;0.40;;
28760;SDS011;15917;50.014;8.352;2023-05-10T13:39:21;0.90;;;0.30;;
28760;SDS011;15917;50.014;8.352;2023-05-10T13:41:47;6.90;;;0.50;;
28760;SDS011;15917;50.014;8.352;2023-05-10T13:44:13;2.65;;;0.50;;
28760;SDS011;15917;50.014;8.352;2023-05-10T13:46:40;3.63;;;0.47;;
28760;SDS011;15917;50.014;8.352;2023-05-10T13:49:06;0.82;;;0.50;;
28760;SDS011;15917;50.014;8.352;2023-05-10T13:51:33;2.53;;;0.40;;
28760;SDS011;15917;50.014;8.352;2023-05-10T13:53:59;1.13;;;0.57;;
28760;SDS011;15917;50.014;8.352;2023-05-10T13:56:24;6.10;;;0.90;;
28760;SDS011;15917;50.014;8.352;2023-05-10T13:58:50;6.07;;;0.70;;
28760;SDS011;15917;50.014;8.352;2023-05-10T14:01:16;2.78;;;0.88;;
28760;SDS011;15917;50.014;8.352;2023-05-10T14:03:41;2.38;;;0.90;;
28760;SDS011;15917;50.014;8.352;2023-05-10T14:06:07;5.63;;;0.60;;
28760;SDS011;15917;50.014;8.352;2023-05-10T14:08:33;1.48;;;0.52;;
28760;SDS011;15917;50.014;8.352;2023-05-10T14:11:00;2.45;;;0.50;;
28760;SDS011;15917;50.014;8.352;2023-05-10T14:13:27;2.05;;;0.90;;
28760;SDS011;15917;50.014;8.352;2023-05-10T14:15:53;3.20;;;0.55;;
28760;SDS011;15917;50.014;8.352;2023-05-10T14:18:19;1.15;;;0.70;;
28760;SDS011;15917;50.014;8.352;2023-05-10T14:20:45;1.95;;;0.50;;
28760;SDS011;15917;50.014;8.352;2023-05-10T14:23:11;0.63;;;0.38;;
28760;SDS011;15917;50.014;8.352;2023-05-10T14:25:37;3.92;;;0.90;;
28760;SDS011;15917;50.014;8.352;2023-05-10T14:28:05;1.45;;;0.43;;
28760;SDS011;15917;50.014;8.352;2023-05-10T14:30:31;0.43;;;0.43;;
28760;SDS011;15917;50.014;8.352;2023-05-10T14:32:56;1.20;;;0.50;;
28760;SDS011;15917;50.014;8.352;2023-05-10T14:35:23;3.17;;;0.50;;
28760;SDS011;15917;50.014;8.352;2023-05-10T14:37:49;4.03;;;0.60;;
28760;SDS011;15917;50.014;8.352;2023-05-10T14:40:15;3.63;;;0.57;;
28760;SDS011;15917;50.014;8.352;2023-05-10T14:42:42;1.52;;;0.60;;
28760;SDS011;15917;50.014;8.352;2023-05-10T14:45:08;1.13;;;0.52;;
28760;SDS011;15917;50.014;8.352;2023-05-10T14:47:34;3.50;;;1.10;;
28760;SDS011;15917;50.014;8.352;2023-05-10T14:50:00;1.88;;;0.50;;
28760;SDS011;15917;50.014;8.352;2023-05-10T14:52:26;2.20;;;0.70;;
28760;SDS011;15917;50.014;8.352;2023-05-10T14:54:52;1.15;;;0.60;;
28760;SDS011;15917;50.014;8.352;2023-05-10T14:57:18;2.58;;;0.70;;
28760;SDS011;15917;50.014;8.352;2023-05-10T14:59:44;8.52;;;0.73;;
28760;SDS011;15917;50.014;8.352;2023-05-10T15:02:09;5.78;;;0.90;;
28760;SDS011;15917;50.014;8.352;2023-05-10T15:04:35;3.55;;;0.63;;
28760;SDS011;15917;50.014;8.352;2023-05-10T15:07:01;3.42;;;0.95;;
28760;SDS011;15917;50.014;8.352;2023-05-10T15:09:27;2.25;;;1.50;;
28760;SDS011;15917;50.014;8.352;2023-05-10T15:11:52;7.70;;;1.13;;
28760;SDS011;15917;50.014;8.352;2023-05-10T15:14:18;3.80;;;0.70;;
28760;SDS011;15917;50.014;8.352;2023-05-10T15:16:44;3.55;;;0.85;;
28760;SDS011;15917;50.014;8.352;2023-05-10T15:19:10;2.47;;;0.82;;
28760;SDS011;15917;50.014;8.352;2023-05-10T15:21:35;3.78;;;0.70;;
28760;SDS011;15917;50.014;8.352;2023-05-10T15:24:06;9.70;;;1.00;;